»·PEaware :: VTS280 KSNA-KSNA

VTS280 :: KSNA-KSNA

FLIGHT INFORMATION

Flight Status: Arrived
Operator: Unknown
More flights by this operator :: More flights under this callsign
Pilot: Brenden M. (4822)
Aircraft: MCDONNELL-DOUGLAS DC-6/B LIFTMASTER
(DC6)
More flights by this aircraft type
Origin: KSNA John Wayne-Orange Co
United States
Destination: KSNA John Wayne-Orange Co
United States
More flights between these airports :: More routes between these airports
Route: +DAWNA KAYOH7
File this flight plan on PilotEdge
Remarks:
Altitude:
(Current/Filed)
15,000ft
Speed:
(Current/Filed)
230kts
Departed: 30-Jan-17 07:15 AM
Arrived: 30-Jan-17 08:23 AM
Distance/Time
Traveled:
0nm/1:08
Distance/Time
To Go:
Arrived

Flight Plot

Page will automatically refresh every two minutes.


Map Options




Map Legend


Flown Route
Filed Route
Departure Airport
Arrival Airport
Navaid (VOR, NDB)
Fix

Horizontal Profiles

Position Reports

Time Latitude Longitude Heading Altitude Ground
Speed
30-Jan-17 07:14 34.391388 -117.107673 51 14866ft 198kts
30-Jan-17 07:15 34.364262 -117.057948 148 14221ft 217kts
30-Jan-17 07:16 34.310197 -117.031184 195 13750ft 222kts
30-Jan-17 07:17 34.273265 -117.088560 234 13287ft 221kts
30-Jan-17 07:18 34.233359 -117.143614 226 12914ft 221kts
30-Jan-17 07:19 34.191370 -117.195849 226 12425ft 225kts
30-Jan-17 07:20 34.149482 -117.247482 225 11796ft 231kts
30-Jan-17 07:21 34.106178 -117.300605 225 11208ft 228kts
30-Jan-17 07:22 34.062589 -117.352604 210 10561ft 224kts
30-Jan-17 07:23 34.016507 -117.322151 129 9805ft 213kts
30-Jan-17 07:24 33.977799 -117.270608 129 9191ft 213kts
30-Jan-17 07:25 33.938048 -117.219691 150 8569ft 215kts
30-Jan-17 07:26 33.905419 -117.261106 258 8030ft 207kts
30-Jan-17 07:27 33.889524 -117.321720 250 8030ft 188kts
30-Jan-17 07:28 33.870034 -117.376683 246 8031ft 178kts
30-Jan-17 07:29 33.849399 -117.428566 244 8030ft 172kts
30-Jan-17 07:30 33.829033 -117.478094 243 8028ft 166kts
30-Jan-17 07:31 33.808192 -117.526470 242 8028ft 164kts
30-Jan-17 07:32 33.794272 -117.578694 283 7943ft 170kts
30-Jan-17 07:33 33.808751 -117.632045 288 7861ft 173kts
30-Jan-17 07:34 33.822675 -117.686850 288 7224ft 186kts
30-Jan-17 07:35 33.839602 -117.742943 289 5737ft 204kts
30-Jan-17 07:36 33.854650 -117.801212 287 4346ft 216kts
30-Jan-17 07:37 33.882076 -117.845867 0 3244ft 205kts
30-Jan-17 07:38 33.905719 -117.804772 101 2912ft 168kts
30-Jan-17 07:39 33.886113 -117.757950 140 2968ft 164kts
30-Jan-17 07:40 33.845681 -117.757143 212 2924ft 169kts
30-Jan-17 07:41 33.806435 -117.787561 208 2657ft 182kts
30-Jan-17 07:42 33.765025 -117.812369 207 1943ft 169kts
30-Jan-17 07:43 33.727899 -117.835665 206 1030ft 161kts
30-Jan-17 07:44 33.688811 -117.860443 207 274ft 191kts
30-Jan-17 07:45 33.642373 -117.879796 184 824ft 169kts
30-Jan-17 07:46 33.596327 -117.884552 182 1551ft 163kts
30-Jan-17 07:47 33.573001 -117.918454 288 2267ft 154kts
30-Jan-17 07:48 33.600322 -117.958872 311 2678ft 164kts
30-Jan-17 07:49 33.634913 -117.972076 10 3316ft 160kts
30-Jan-17 07:50 33.674323 -117.962481 13 3717ft 170kts
30-Jan-17 07:51 33.715002 -117.948789 11 4237ft 170kts
30-Jan-17 07:52 33.756518 -117.940469 8 3626ft 180kts
30-Jan-17 07:53 33.797166 -117.933492 10 3004ft 177kts
30-Jan-17 07:54 33.834898 -117.925231 9 2944ft 160kts
30-Jan-17 07:55 33.859696 -117.898401 89 2840ft 151kts
30-Jan-17 07:56 33.852619 -117.854137 102 2877ft 145kts
30-Jan-17 07:57 33.843614 -117.809992 101 2963ft 142kts
30-Jan-17 07:58 33.834363 -117.773697 142 3038ft 139kts
30-Jan-17 07:59 33.797266 -117.792958 227 2779ft 158kts
30-Jan-17 08:00 33.760010 -117.814974 205 1904ft 163kts
30-Jan-17 08:01 33.716008 -117.843041 208 776ft 221kts
30-Jan-17 08:02 33.665329 -117.875205 206 189ft 210kts
30-Jan-17 08:03 33.616384 -117.881718 186 1338ft 178kts
30-Jan-17 08:04 33.568600 -117.886747 186 2191ft 161kts
30-Jan-17 08:05 33.524324 -117.893366 185 2828ft 158kts
30-Jan-17 08:06 33.507760 -117.926092 322 3060ft 174kts
30-Jan-17 08:07 33.548095 -117.961467 331 2956ft 190kts
30-Jan-17 08:08 33.594038 -117.989027 334 3011ft 191kts
30-Jan-17 08:09 33.639187 -118.017132 333 3005ft 196kts
30-Jan-17 08:10 33.684520 -118.037966 11 3046ft 195kts
30-Jan-17 08:11 33.718700 -118.015075 30 2888ft 201kts
30-Jan-17 08:12 33.756333 -117.990033 27 2894ft 181kts
30-Jan-17 08:13 33.790665 -117.968140 28 2914ft 165kts
30-Jan-17 08:14 33.821805 -117.944754 30 2904ft 152kts
30-Jan-17 08:15 33.849639 -117.919676 77 2890ft 140kts
30-Jan-17 08:16 33.854856 -117.875209 83 2707ft 145kts
30-Jan-17 08:17 33.857901 -117.828860 105 3062ft 159kts
30-Jan-17 08:18 33.840444 -117.776291 128 3170ft 183kts
30-Jan-17 08:19 33.796406 -117.784486 222 2611ft 202kts
30-Jan-17 08:20 33.756310 -117.817510 206 1821ft 172kts
30-Jan-17 08:21 33.723075 -117.838539 207 919ft 125kts
30-Jan-17 08:22 33.696522 -117.855581 208 429ft 110kts
30-Jan-17 08:23 33.675342 -117.869037 207 65ft 26kts
30-Jan-17 08:24 33.674312 -117.871028 275 65ft 0kts
30-Jan-17 08:25 33.674312 -117.871028 276 65ft 0kts
30-Jan-17 08:26 33.674312 -117.871028 276 65ft 0kts
30-Jan-17 08:27 33.674312 -117.871028 276 65ft 0kts
30-Jan-17 08:28 33.673249 -117.871924 210 65ft 14kts
30-Jan-17 08:29 33.671350 -117.873853 29 65ft 0kts

Navigation Log

Ident Type
Flight plan parsing failed, navigation log unavailable